createdAt,value
2018-07-21T00:00:12.937Z,99544
2018-07-21T00:01:18.138Z,99561
2018-07-21T00:02:23.163Z,99550
2018-07-21T00:03:28.804Z,99576
2018-07-21T00:04:33.783Z,99550
2018-07-21T00:05:38.673Z,99556
2018-07-21T00:06:43.796Z,99544
2018-07-21T00:07:49.271Z,99544
2018-07-21T00:08:54.434Z,99544
2018-07-21T00:10:00.314Z,99547
2018-07-21T00:11:05.257Z,99547
2018-07-21T00:12:10.745Z,99544
2018-07-21T00:13:16.252Z,99539
2018-07-21T00:14:21.502Z,99541
2018-07-21T00:15:41.616Z,99544
2018-07-21T00:16:46.196Z,99536
2018-07-21T00:17:51.707Z,99539
2018-07-21T00:18:57.234Z,99544
2018-07-21T00:20:02.170Z,99544
2018-07-21T00:21:06.776Z,99544
2018-07-21T00:22:12.272Z,99544
2018-07-21T00:23:16.861Z,99550
2018-07-21T00:24:22.329Z,99553
2018-07-21T00:25:27.750Z,99542
2018-07-21T00:26:32.676Z,99544
2018-07-21T00:27:38.178Z,99544
2018-07-21T00:28:43.746Z,99536
2018-07-21T00:29:49.228Z,99542
2018-07-21T00:30:55.177Z,99544
2018-07-21T00:32:00.658Z,99536
2018-07-21T00:33:05.525Z,99536
2018-07-21T00:34:11.073Z,99533
2018-07-21T00:35:16.561Z,99527
2018-07-21T00:36:21.426Z,99533
2018-07-21T00:37:26.270Z,99515
2018-07-21T00:38:31.448Z,99524
2018-07-21T00:39:37.257Z,99527
2018-07-21T00:40:42.774Z,99515
2018-07-21T00:41:47.981Z,99512
2018-07-21T00:42:53.757Z,99524
2018-07-21T00:43:59.244Z,99515
2018-07-21T00:45:03.904Z,99527
2018-07-21T00:46:08.554Z,99524
2018-07-21T00:47:13.983Z,99518
2018-07-21T00:48:19.287Z,99521
2018-07-21T00:49:24.799Z,99512
2018-07-21T00:50:29.666Z,99509
2018-07-21T00:51:34.890Z,99509
2018-07-21T00:52:40.045Z,99518
2018-07-21T00:53:45.189Z,99518
2018-07-21T00:54:50.039Z,99509
2018-07-21T00:55:55.480Z,99509
2018-07-21T00:57:00.351Z,99495
2018-07-21T00:58:05.355Z,99509
2018-07-21T00:59:10.621Z,99509
2018-07-21T01:00:15.805Z,99506
2018-07-21T01:01:21.234Z,99498
2018-07-21T01:02:26.421Z,99506
2018-07-21T01:03:32.099Z,99518
2018-07-21T01:04:37.527Z,99492
2018-07-21T01:05:42.708Z,99501
2018-07-21T01:06:48.392Z,99498
2018-07-21T01:07:53.921Z,99498
2018-07-21T01:08:59.078Z,99495
2018-07-21T01:10:04.507Z,99489
2018-07-21T01:11:09.484Z,99504
2018-07-21T01:12:15.042Z,99489
2018-07-21T01:13:20.532Z,99489
2018-07-21T01:14:25.479Z,99495
2018-07-21T01:15:30.773Z,99477
2018-07-21T01:16:36.212Z,99498
2018-07-21T01:17:41.105Z,99492
2018-07-21T01:18:46.560Z,99492
2018-07-21T01:19:51.718Z,99489
2018-07-21T01:20:57.208Z,99489
2018-07-21T01:22:02.195Z,99483
2018-07-21T01:23:07.625Z,99483
2018-07-21T01:24:12.254Z,99480
2018-07-21T01:25:17.696Z,99486
2018-07-21T01:26:22.283Z,99489
2018-07-21T01:27:28.071Z,99483
2018-07-21T01:28:33.031Z,99489
2018-07-21T01:29:38.189Z,99486
2018-07-21T01:30:43.357Z,99477
2018-07-21T01:31:48.785Z,99486
2018-07-21T01:32:54.251Z,99492
2018-07-21T01:33:59.933Z,99483
2018-07-21T01:35:05.097Z,99483
2018-07-21T01:36:10.529Z,99477
2018-07-21T01:37:15.762Z,99469
2018-07-21T01:38:20.992Z,99483
2018-07-21T01:39:41.044Z,99480
2018-07-21T01:40:46.266Z,99486
2018-07-21T01:41:51.255Z,99483
2018-07-21T01:42:56.930Z,99469
2018-07-21T01:44:02.356Z,99474
2018-07-21T01:45:07.570Z,99474
2018-07-21T01:46:13.121Z,99474
2018-07-21T01:47:18.593Z,99471
2018-07-21T01:48:24.118Z,99477
2018-07-21T01:49:44.552Z,99474
2018-07-21T01:50:49.416Z,99471
2018-07-21T01:51:54.821Z,99469
2018-07-21T01:53:00.011Z,99464
2018-07-21T01:54:05.172Z,99464
2018-07-21T01:55:10.857Z,99464
2018-07-21T01:56:16.081Z,99464
2018-07-21T01:57:21.230Z,99464
2018-07-21T01:58:26.988Z,99458
2018-07-21T01:59:32.519Z,99461
2018-07-21T02:00:38.199Z,99464
2018-07-21T02:01:42.600Z,99455
2018-07-21T02:02:47.466Z,99464
2018-07-21T02:03:53.016Z,99455
2018-07-21T02:04:58.459Z,99458
2018-07-21T02:06:03.398Z,99449
2018-07-21T02:07:08.253Z,99452
2018-07-21T02:08:13.741Z,99449
2018-07-21T02:09:19.243Z,99452
2018-07-21T02:10:24.756Z,99455
2018-07-21T02:11:29.900Z,99452
2018-07-21T02:12:35.260Z,99455
2018-07-21T02:13:40.794Z,99455
2018-07-21T02:14:45.412Z,99449
2018-07-21T02:15:50.850Z,99452
2018-07-21T02:16:56.024Z,99452
2018-07-21T02:18:00.897Z,99464
2018-07-21T02:19:05.657Z,99458
2018-07-21T02:20:11.093Z,99461
2018-07-21T02:21:15.949Z,99458
2018-07-21T02:22:21.245Z,99461
2018-07-21T02:23:26.752Z,99458
2018-07-21T02:24:32.681Z,99464
2018-07-21T02:25:37.552Z,99458
2018-07-21T02:26:42.443Z,99464
2018-07-21T02:27:47.984Z,99458
2018-07-21T02:28:53.124Z,99464
2018-07-21T02:29:58.313Z,99469
2018-07-21T02:31:03.711Z,99467
2018-07-21T02:32:08.611Z,99461
2018-07-21T02:33:13.847Z,99461
2018-07-21T02:34:19.564Z,99452
2018-07-21T02:35:24.709Z,99464
2018-07-21T02:36:29.519Z,99464
2018-07-21T02:37:34.679Z,99461
2018-07-21T02:38:39.863Z,99477
2018-07-21T02:39:45.127Z,99467
2018-07-21T02:40:49.439Z,99469
2018-07-21T02:41:54.606Z,99471
2018-07-21T02:43:00.100Z,99474
2018-07-21T02:44:04.987Z,99474
2018-07-21T02:45:09.570Z,99471
2018-07-21T02:46:15.074Z,99464
2018-07-21T02:47:20.562Z,99477
2018-07-21T02:48:26.603Z,99467
2018-07-21T02:49:31.497Z,99474
2018-07-21T02:50:36.732Z,99467
2018-07-21T02:51:41.880Z,99471
2018-07-21T02:52:47.394Z,99467
2018-07-21T02:53:52.899Z,99469
2018-07-21T02:54:58.676Z,99469
2018-07-21T02:56:03.839Z,99477
2018-07-21T02:57:09.047Z,99474
2018-07-21T02:58:14.439Z,99474
2018-07-21T02:59:19.629Z,99477
2018-07-21T03:01:45.352Z,99474
2018-07-21T03:02:50.216Z,99498
2018-07-21T03:03:55.605Z,99486
2018-07-21T03:05:00.833Z,99489
2018-07-21T03:06:05.222Z,99486
2018-07-21T03:07:10.333Z,99489
2018-07-21T03:08:15.578Z,99492
2018-07-21T03:09:21.012Z,99489
2018-07-21T03:10:26.914Z,99486
2018-07-21T03:11:32.081Z,99486
2018-07-21T03:12:37.524Z,99492
2018-07-21T03:13:42.963Z,99486
2018-07-21T03:14:48.407Z,99495
2018-07-21T03:15:53.904Z,99489
2018-07-21T03:16:59.339Z,99486
2018-07-21T03:18:04.819Z,99501
2018-07-21T03:19:10.321Z,99492
2018-07-21T03:20:15.769Z,99489
2018-07-21T03:21:21.240Z,99489
2018-07-21T03:22:41.237Z,99489
2018-07-21T03:23:45.934Z,99486
2018-07-21T03:24:51.733Z,99489
2018-07-21T03:25:57.220Z,99495
2018-07-21T03:27:02.134Z,99495
2018-07-21T03:28:07.959Z,99492
2018-07-21T03:29:12.534Z,99495
2018-07-21T03:30:17.994Z,99501
2018-07-21T03:31:23.260Z,99492
2018-07-21T03:32:28.408Z,99483
2018-07-21T03:33:33.960Z,99492
2018-07-21T03:34:39.409Z,99495
2018-07-21T03:35:44.552Z,99486
2018-07-21T03:36:49.838Z,99483
2018-07-21T03:37:55.379Z,99492
2018-07-21T03:39:00.536Z,99480
2018-07-21T03:40:06.063Z,99480
2018-07-21T03:41:11.213Z,99492
2018-07-21T03:42:16.647Z,99486
2018-07-21T03:43:22.149Z,99492
2018-07-21T03:44:27.641Z,99492
2018-07-21T03:45:33.524Z,99489
2018-07-21T03:46:38.431Z,99495
2018-07-21T03:47:43.296Z,99489
2018-07-21T03:48:48.228Z,99498
2018-07-21T03:49:53.708Z,99486
2018-07-21T03:50:58.607Z,99480
2018-07-21T03:52:03.842Z,99480
2018-07-21T03:53:08.994Z,99492
2018-07-21T03:54:13.922Z,99474
2018-07-21T03:55:19.188Z,99486
2018-07-21T03:56:24.040Z,99483
2018-07-21T03:57:29.549Z,99486
2018-07-21T03:58:35.017Z,99489
2018-07-21T03:59:40.208Z,99492
2018-07-21T04:00:45.345Z,99486
2018-07-21T04:01:50.246Z,99489
2018-07-21T04:02:55.388Z,99492
2018-07-21T04:04:01.087Z,99495
2018-07-21T04:05:05.976Z,99498
2018-07-21T04:06:10.613Z,99489
2018-07-21T04:07:16.588Z,99486
2018-07-21T04:08:21.747Z,99480
2018-07-21T04:09:27.302Z,99477
2018-07-21T04:10:32.172Z,99483
2018-07-21T04:11:37.373Z,99486
2018-07-21T04:12:42.762Z,99483
2018-07-21T04:13:47.677Z,99483
2018-07-21T04:14:52.833Z,99474
2018-07-21T04:15:58.340Z,99492
2018-07-21T04:17:02.929Z,99483
2018-07-21T04:18:08.084Z,99474
2018-07-21T04:19:13.224Z,99477
2018-07-21T04:20:18.394Z,99475
2018-07-21T04:21:23.832Z,99477
2018-07-21T04:22:30.378Z,99486
2018-07-21T04:23:35.665Z,99486
2018-07-21T04:24:41.106Z,99477
2018-07-21T04:25:46.259Z,99483
2018-07-21T04:26:51.433Z,99483
2018-07-21T04:27:56.642Z,99495
2018-07-21T04:29:02.072Z,99486
2018-07-21T04:30:07.262Z,99486
2018-07-21T04:31:12.699Z,99483
2018-07-21T04:32:18.127Z,99486
2018-07-21T04:33:22.743Z,99489
2018-07-21T04:34:28.072Z,99495
2018-07-21T04:35:33.224Z,99486
2018-07-21T04:36:38.652Z,99483
2018-07-21T04:37:44.081Z,99486
2018-07-21T04:38:49.231Z,99480
2018-07-21T04:39:54.922Z,99480
2018-07-21T04:41:00.081Z,99486
2018-07-21T04:42:05.237Z,99483
2018-07-21T04:43:10.367Z,99486
2018-07-21T04:44:15.591Z,99477
2018-07-21T04:45:20.795Z,99489
2018-07-21T04:46:41.225Z,99480
2018-07-21T04:47:46.367Z,99475
2018-07-21T04:48:51.769Z,99477
2018-07-21T04:49:56.646Z,99477
2018-07-21T04:51:02.077Z,99477
2018-07-21T04:52:07.571Z,99483
2018-07-21T04:53:12.724Z,99483
2018-07-21T04:54:17.863Z,99486
2018-07-21T04:55:23.255Z,99480
2018-07-21T04:56:28.169Z,99495
2018-07-21T04:57:33.570Z,99498
2018-07-21T04:58:38.778Z,99501
2018-07-21T04:59:44.277Z,99489
2018-07-21T05:00:49.639Z,99498
2018-07-21T05:01:55.264Z,99486
2018-07-21T05:03:00.419Z,99492
2018-07-21T05:04:05.845Z,99492
2018-07-21T05:05:11.270Z,99486
2018-07-21T05:06:16.413Z,99501
2018-07-21T05:07:22.223Z,99495
2018-07-21T05:08:27.762Z,99501
2018-07-21T05:09:33.163Z,99489
2018-07-21T05:10:37.753Z,99498
2018-07-21T05:11:43.218Z,99492
2018-07-21T05:12:48.897Z,99504
2018-07-21T05:13:54.322Z,99486
2018-07-21T05:14:59.789Z,99501
2018-07-21T05:16:05.130Z,99498
2018-07-21T05:17:10.555Z,99498
2018-07-21T05:18:16.051Z,99507
2018-07-21T05:19:21.478Z,99501
2018-07-21T05:20:26.626Z,99504
2018-07-21T05:21:32.302Z,99504
2018-07-21T05:22:37.788Z,99501
2018-07-21T05:23:43.258Z,99492
2018-07-21T05:24:48.761Z,99504
2018-07-21T05:25:53.921Z,99510
2018-07-21T05:26:58.785Z,99504
2018-07-21T05:28:03.658Z,99507
2018-07-21T05:29:08.513Z,99498
2018-07-21T05:30:13.948Z,99501
2018-07-21T05:31:19.385Z,99501
2018-07-21T05:32:24.806Z,99510
2018-07-21T05:33:30.890Z,99507
2018-07-21T05:34:36.539Z,99518
2018-07-21T05:35:41.794Z,99515
2018-07-21T05:36:47.468Z,99515
2018-07-21T05:37:52.633Z,99521
2018-07-21T05:38:58.168Z,99524
2018-07-21T05:40:03.390Z,99527
2018-07-21T05:41:08.821Z,99521
2018-07-21T05:42:14.273Z,99521
2018-07-21T05:43:19.903Z,99513
2018-07-21T05:44:25.123Z,99513
2018-07-21T05:45:30.660Z,99527
2018-07-21T05:46:35.523Z,99521
2018-07-21T05:47:40.375Z,99524
2018-07-21T05:48:46.218Z,99521
2018-07-21T05:49:51.075Z,99527
2018-07-21T05:50:56.500Z,99524
2018-07-21T05:52:01.760Z,99527
2018-07-21T05:53:06.732Z,99533
2018-07-21T05:54:12.040Z,99524
2018-07-21T05:55:17.435Z,99521
2018-07-21T05:56:22.615Z,99521
2018-07-21T05:57:28.224Z,99521
2018-07-21T05:58:33.373Z,99521
2018-07-21T05:59:38.840Z,99536
2018-07-21T06:00:44.282Z,99527
2018-07-21T06:01:49.710Z,99533
2018-07-21T06:02:54.998Z,99521
2018-07-21T06:04:00.687Z,99521
2018-07-21T06:05:05.840Z,99527
2018-07-21T06:06:10.717Z,99524
2018-07-21T06:07:15.552Z,99521
2018-07-21T06:08:20.695Z,99518
2018-07-21T06:09:26.546Z,99524
2018-07-21T06:10:31.175Z,99536
2018-07-21T06:11:36.324Z,99533
2018-07-21T06:12:41.777Z,99524
2018-07-21T06:13:46.684Z,99533
2018-07-21T06:14:52.111Z,99539
2018-07-21T06:15:57.803Z,99539
2018-07-21T06:17:03.065Z,99542
2018-07-21T06:18:08.374Z,99539
2018-07-21T06:19:13.850Z,99545
2018-07-21T06:20:19.301Z,99542
2018-07-21T06:22:44.365Z,99550
2018-07-21T06:23:50.022Z,99545
2018-07-21T06:24:55.924Z,99545
2018-07-21T06:26:01.173Z,99545
2018-07-21T06:27:05.762Z,99556
2018-07-21T06:28:11.860Z,99556
2018-07-21T06:29:17.120Z,99545
2018-07-21T06:30:22.073Z,99553
2018-07-21T06:31:42.132Z,99550
2018-07-21T06:32:47.160Z,99550
2018-07-21T06:33:52.764Z,99545
2018-07-21T06:34:57.623Z,99548
2018-07-21T06:36:02.238Z,99553
2018-07-21T06:37:07.770Z,99567
2018-07-21T06:38:12.657Z,99545
2018-07-21T06:39:18.169Z,99556
2018-07-21T06:40:23.947Z,99576
2018-07-21T06:41:29.475Z,99550
2018-07-21T06:42:35.517Z,99550
2018-07-21T06:43:40.955Z,99556
2018-07-21T06:44:46.112Z,99556
2018-07-21T06:45:51.748Z,99550
2018-07-21T06:46:57.168Z,99556
2018-07-21T06:48:01.755Z,99550
2018-07-21T06:49:07.633Z,99570
2018-07-21T06:50:12.880Z,99564
2018-07-21T06:51:18.304Z,99556
2018-07-21T06:52:23.455Z,99564
2018-07-21T06:53:28.608Z,99564
2018-07-21T06:54:34.173Z,99564
2018-07-21T06:55:38.974Z,99576
2018-07-21T06:56:44.166Z,99561
2018-07-21T06:57:49.721Z,99567
2018-07-21T06:58:54.956Z,99564
2018-07-21T06:59:59.858Z,99564
2018-07-21T07:01:04.835Z,99579
2018-07-21T07:02:09.993Z,99576
2018-07-21T07:03:15.496Z,99582
2018-07-21T07:04:20.148Z,99582
2018-07-21T07:05:25.608Z,99576
2018-07-21T07:06:30.714Z,99587
2018-07-21T07:07:36.384Z,99587
2018-07-21T07:08:41.313Z,99590
2018-07-21T07:09:46.715Z,99587
2018-07-21T07:10:52.224Z,99590
2018-07-21T07:11:57.440Z,99590
2018-07-21T07:13:02.562Z,99599
2018-07-21T07:14:07.525Z,99599
2018-07-21T07:15:12.722Z,99593
2018-07-21T07:16:18.155Z,99593
2018-07-21T07:17:23.268Z,99593
2018-07-21T07:18:28.932Z,99599
2018-07-21T07:19:34.359Z,99602
2018-07-21T07:20:39.287Z,99596
2018-07-21T07:21:44.766Z,99608
2018-07-21T07:22:49.630Z,99605
2018-07-21T07:23:54.502Z,99608
2018-07-21T07:24:59.929Z,99611
2018-07-21T07:26:05.410Z,99611
2018-07-21T07:27:10.566Z,99620
2018-07-21T07:28:16.254Z,99617
2018-07-21T07:29:21.799Z,99605
2018-07-21T07:30:27.245Z,99617
2018-07-21T07:31:32.399Z,99620
2018-07-21T07:32:37.581Z,99620
2018-07-21T07:33:43.299Z,99623
2018-07-21T07:34:48.778Z,99623
2018-07-21T07:35:54.245Z,99620
2018-07-21T07:37:00.053Z,99614
2018-07-21T07:38:05.519Z,99608
2018-07-21T07:39:11.092Z,99620
2018-07-21T07:40:16.517Z,99620
2018-07-21T07:41:21.945Z,99617
2018-07-21T07:42:27.927Z,99625
2018-07-21T07:43:33.082Z,99620
2018-07-21T07:44:38.582Z,99620
2018-07-21T07:45:44.286Z,99628
2018-07-21T07:46:49.148Z,99623
2018-07-21T07:47:54.581Z,99620
2018-07-21T07:48:59.710Z,99617
2018-07-21T07:50:05.069Z,99625
2018-07-21T07:51:10.311Z,99628
2018-07-21T07:52:15.524Z,99614
2018-07-21T07:53:20.769Z,99620
2018-07-21T07:54:26.772Z,99617
2018-07-21T07:55:32.310Z,99617
2018-07-21T07:56:37.539Z,99611
2018-07-21T07:57:43.027Z,99611
2018-07-21T07:58:48.467Z,99611
2018-07-21T07:59:53.907Z,99620
2018-07-21T08:00:59.433Z,99608
2018-07-21T08:02:04.737Z,99614
2018-07-21T08:03:09.340Z,99622
2018-07-21T08:04:14.577Z,99614
2018-07-21T08:05:20.078Z,99616
2018-07-21T08:06:40.379Z,99611
2018-07-21T08:07:45.820Z,99619
2018-07-21T08:08:51.308Z,99616
2018-07-21T08:09:56.859Z,99613
2018-07-21T08:11:01.756Z,99628
2018-07-21T08:12:06.911Z,99616
2018-07-21T08:13:12.319Z,99616
2018-07-21T08:14:17.785Z,99613
2018-07-21T08:15:23.452Z,99616
2018-07-21T08:16:29.174Z,99613
2018-07-21T08:17:33.801Z,99607
2018-07-21T08:18:39.217Z,99610
2018-07-21T08:19:44.703Z,99607
2018-07-21T08:20:49.889Z,99619
2018-07-21T08:21:55.151Z,99607
2018-07-21T08:23:00.058Z,99607
2018-07-21T08:24:05.252Z,99622
2018-07-21T08:25:10.852Z,99616
2018-07-21T08:26:16.031Z,99616
2018-07-21T08:27:20.908Z,99610
2018-07-21T08:28:40.957Z,99610
2018-07-21T08:29:45.625Z,99607
2018-07-21T08:30:51.308Z,99613
2018-07-21T08:31:56.184Z,99616
2018-07-21T08:33:01.616Z,99613
2018-07-21T08:34:06.835Z,99619
2018-07-21T08:35:12.273Z,99619
2018-07-21T08:36:17.717Z,99607
2018-07-21T08:37:22.838Z,99598
2018-07-21T08:38:28.265Z,99604
2018-07-21T08:39:33.923Z,99604
2018-07-21T08:40:39.071Z,99604
2018-07-21T08:41:43.952Z,99601
2018-07-21T08:42:49.252Z,99598
2018-07-21T08:43:54.685Z,99604
2018-07-21T08:44:59.257Z,99604
2018-07-21T08:46:04.425Z,99598
2018-07-21T08:47:09.284Z,99613
2018-07-21T08:48:14.178Z,99607
2018-07-21T08:49:19.141Z,99607
2018-07-21T08:50:24.354Z,99613
2018-07-21T08:51:30.048Z,99604
2018-07-21T08:52:34.935Z,99619
2018-07-21T08:53:40.410Z,99601
2018-07-21T08:54:45.714Z,99607
2018-07-21T08:55:50.922Z,99607
2018-07-21T08:56:56.530Z,99604
2018-07-21T08:58:02.194Z,99604
2018-07-21T08:59:06.800Z,99595
2018-07-21T09:00:12.235Z,99601
2018-07-21T09:01:18.009Z,99589
2018-07-21T09:02:23.498Z,99595
2018-07-21T09:03:29.181Z,99592
2018-07-21T09:04:34.329Z,99592
2018-07-21T09:05:39.902Z,99589
2018-07-21T09:06:45.104Z,99586
2018-07-21T09:07:50.538Z,99583
2018-07-21T09:08:55.708Z,99589
2018-07-21T09:10:01.434Z,99589
2018-07-21T09:11:06.024Z,99577
2018-07-21T09:12:11.462Z,99574
2018-07-21T09:13:17.204Z,99577
2018-07-21T09:14:22.357Z,99583
2018-07-21T09:15:27.971Z,99574
2018-07-21T09:16:33.130Z,99580
2018-07-21T09:17:38.278Z,99577
2018-07-21T09:18:43.905Z,99577
2018-07-21T09:19:49.080Z,99580
2018-07-21T09:20:54.220Z,99577
2018-07-21T09:21:59.656Z,99577
2018-07-21T09:23:05.146Z,99574
2018-07-21T09:24:10.020Z,99577
2018-07-21T09:25:15.603Z,99577
2018-07-21T09:26:20.853Z,99574
2018-07-21T09:27:26.681Z,99568
2018-07-21T09:28:31.661Z,99568
2018-07-21T09:29:36.855Z,99571
2018-07-21T09:30:42.303Z,99586
2018-07-21T09:31:47.454Z,99586
2018-07-21T09:32:52.606Z,99580
2018-07-21T09:33:58.391Z,99580
2018-07-21T09:35:03.017Z,99577
2018-07-21T09:36:07.906Z,99577
2018-07-21T09:37:13.119Z,99577
2018-07-21T09:38:18.029Z,99574
2018-07-21T09:39:23.635Z,99583
2018-07-21T09:40:42.917Z,99574
2018-07-21T09:41:48.121Z,99574
2018-07-21T09:42:53.630Z,99574
2018-07-21T09:43:58.501Z,99571
2018-07-21T09:45:03.656Z,99568
2018-07-21T09:46:09.137Z,99577
2018-07-21T09:47:14.629Z,99563
2018-07-21T09:48:20.057Z,99571
2018-07-21T09:49:25.374Z,99574
2018-07-21T09:50:30.741Z,99571
2018-07-21T09:51:36.444Z,99574
2018-07-21T09:52:41.594Z,99577
2018-07-21T09:53:46.459Z,99574
2018-07-21T09:54:51.903Z,99583
2018-07-21T09:55:56.921Z,99580
2018-07-21T09:57:02.189Z,99580
2018-07-21T09:58:06.478Z,99583
2018-07-21T09:59:11.631Z,99589
2018-07-21T10:00:16.801Z,99589
2018-07-21T10:01:22.480Z,99589
2018-07-21T10:02:27.643Z,99589
2018-07-21T10:03:33.091Z,99586
2018-07-21T10:04:37.967Z,99589
2018-07-21T10:05:43.463Z,99577
2018-07-21T10:06:48.999Z,99589
2018-07-21T10:07:53.875Z,99595
2018-07-21T10:08:58.865Z,99586
2018-07-21T10:10:03.805Z,99598
2018-07-21T10:11:09.048Z,99586
2018-07-21T10:12:13.913Z,99577
2018-07-21T10:13:19.752Z,99592
2018-07-21T10:14:24.650Z,99589
2018-07-21T10:15:30.517Z,99586
2018-07-21T10:16:36.316Z,99583
2018-07-21T10:17:41.747Z,99583
2018-07-21T10:18:46.887Z,99589
2018-07-21T10:19:52.064Z,99583
2018-07-21T10:20:56.755Z,99580
2018-07-21T10:22:02.488Z,99589
2018-07-21T10:23:07.139Z,99583
2018-07-21T10:24:12.363Z,99592
2018-07-21T10:25:22.851Z,99589
2018-07-21T10:26:28.284Z,99589
2018-07-21T10:27:33.336Z,99595
2018-07-21T10:28:38.398Z,99586
2018-07-21T10:29:43.478Z,99589
2018-07-21T10:30:48.888Z,99597
2018-07-21T10:31:54.355Z,99589
2018-07-21T10:32:59.533Z,99597
2018-07-21T10:34:04.980Z,99586
2018-07-21T10:35:09.356Z,99600
2018-07-21T10:36:14.599Z,99594
2018-07-21T10:37:20.002Z,99597
2018-07-21T10:38:25.465Z,99600
2018-07-21T10:39:31.224Z,99586
2018-07-21T10:40:36.421Z,99589
2018-07-21T10:41:41.331Z,99586
2018-07-21T10:42:46.877Z,99591
2018-07-21T10:43:51.540Z,99600
2018-07-21T10:44:57.038Z,99589
2018-07-21T10:46:02.628Z,99586
2018-07-21T10:47:07.219Z,99588
2018-07-21T10:48:12.121Z,99586
2018-07-21T10:49:17.399Z,99583
2018-07-21T10:50:22.860Z,99574
2018-07-21T10:51:28.250Z,99565
2018-07-21T10:52:33.771Z,99580
2018-07-21T10:53:39.238Z,99571
2018-07-21T10:54:44.968Z,99574
2018-07-21T10:55:49.851Z,99577
2018-07-21T10:56:54.719Z,99586
2018-07-21T10:58:00.144Z,99586
2018-07-21T10:59:05.076Z,99583
2018-07-21T11:00:10.330Z,99586
2018-07-21T11:01:15.617Z,99586
2018-07-21T11:02:20.779Z,99580
2018-07-21T11:03:40.653Z,99585
2018-07-21T11:04:45.799Z,99585
2018-07-21T11:05:50.961Z,99603
2018-07-21T11:06:56.360Z,99597
2018-07-21T11:08:01.916Z,99588
2018-07-21T11:09:06.656Z,99594
2018-07-21T11:10:11.767Z,99594
2018-07-21T11:11:16.754Z,99583
2018-07-21T11:12:21.936Z,99580
2018-07-21T11:13:41.890Z,99588
2018-07-21T11:14:47.047Z,99583
2018-07-21T11:15:51.938Z,99591
2018-07-21T11:16:57.095Z,99588
2018-07-21T11:18:01.986Z,99600
2018-07-21T11:19:06.596Z,99594
2018-07-21T11:20:11.812Z,99583
2018-07-21T11:21:17.284Z,99583
2018-07-21T11:22:23.111Z,99591
2018-07-21T11:23:28.598Z,99594
2018-07-21T11:24:34.182Z,99594
2018-07-21T11:25:39.772Z,99597
2018-07-21T11:26:45.294Z,99594
2018-07-21T11:27:51.206Z,99600
2018-07-21T11:28:56.452Z,99594
2018-07-21T11:30:01.329Z,99597
2018-07-21T11:31:06.817Z,99597
2018-07-21T11:32:11.394Z,99600
2018-07-21T11:33:16.868Z,99597
2018-07-21T11:34:22.558Z,99594
2018-07-21T11:35:28.375Z,99600
2018-07-21T11:36:34.985Z,99600
2018-07-21T11:37:40.716Z,99597
2018-07-21T11:38:45.864Z,99600
2018-07-21T11:39:51.327Z,99600
2018-07-21T11:40:55.913Z,99597
2018-07-21T11:42:01.367Z,99603
2018-07-21T11:43:06.320Z,99597
2018-07-21T11:44:11.464Z,99603
2018-07-21T11:45:16.618Z,99606
2018-07-21T11:46:22.350Z,99603
2018-07-21T11:47:27.217Z,99600
2018-07-21T11:48:32.946Z,99606
2018-07-21T11:49:38.409Z,99615
2018-07-21T11:50:43.021Z,99606
2018-07-21T11:51:48.287Z,99615
2018-07-21T11:52:52.862Z,99606
2018-07-21T11:53:58.034Z,99603
2018-07-21T11:55:02.967Z,99615
2018-07-21T11:56:07.867Z,99615
2018-07-21T11:57:13.025Z,99623
2018-07-21T11:58:18.809Z,99618
2018-07-21T11:59:24.252Z,99615
2018-07-21T12:00:29.667Z,99606
2018-07-21T12:01:34.312Z,99612
2018-07-21T12:02:39.192Z,99612
2018-07-21T12:03:44.454Z,99609
2018-07-21T12:04:49.923Z,99615
2018-07-21T12:05:55.493Z,99609
2018-07-21T12:07:00.417Z,99606
2018-07-21T12:08:04.996Z,99620
2018-07-21T12:09:10.180Z,99618
2018-07-21T12:10:15.887Z,99609
2018-07-21T12:11:21.317Z,99603
2018-07-21T12:12:26.959Z,99609
2018-07-21T12:13:32.560Z,99609
2018-07-21T12:14:38.628Z,99606
2018-07-21T12:15:44.182Z,99612
2018-07-21T12:16:49.383Z,99618
2018-07-21T12:17:54.817Z,99609
2018-07-21T12:19:00.645Z,99603
2018-07-21T12:20:05.240Z,99594
2018-07-21T12:21:10.167Z,99603
2018-07-21T12:22:15.809Z,99606
2018-07-21T12:23:21.049Z,99617
2018-07-21T12:24:40.539Z,99606
2018-07-21T12:25:46.046Z,99615
2018-07-21T12:26:51.474Z,99617
2018-07-21T12:27:56.889Z,99606
2018-07-21T12:29:02.374Z,99615
2018-07-21T12:30:07.398Z,99612
2018-07-21T12:31:12.537Z,99615
2018-07-21T12:32:17.975Z,99614
2018-07-21T12:33:23.445Z,99614
2018-07-21T12:34:43.888Z,99606
2018-07-21T12:35:49.297Z,99609
2018-07-21T12:36:55.101Z,99614
2018-07-21T12:38:00.249Z,99614
2018-07-21T12:39:05.136Z,99609
2018-07-21T12:40:10.774Z,99609
2018-07-21T12:41:15.189Z,99620
2018-07-21T12:42:20.776Z,99617
2018-07-21T12:43:25.717Z,99614
2018-07-21T12:44:30.595Z,99612
2018-07-21T12:45:35.988Z,99623
2018-07-21T12:46:41.431Z,99620
2018-07-21T12:47:46.316Z,99617
2018-07-21T12:48:51.716Z,99617
2018-07-21T12:49:56.699Z,99614
2018-07-21T12:51:02.137Z,99629
2018-07-21T12:52:07.367Z,99617
2018-07-21T12:53:12.832Z,99603
2018-07-21T12:54:18.096Z,99623
2018-07-21T12:55:23.791Z,99614
2018-07-21T12:56:28.960Z,99620
2018-07-21T12:57:34.827Z,99617
2018-07-21T12:58:40.081Z,99609
2018-07-21T12:59:45.514Z,99617
2018-07-21T13:00:50.780Z,99617
2018-07-21T13:01:55.655Z,99617
2018-07-21T13:03:01.143Z,99623
2018-07-21T13:04:05.472Z,99614
2018-07-21T13:05:10.691Z,99617
2018-07-21T13:06:16.128Z,99609
2018-07-21T13:07:22.001Z,99609
2018-07-21T13:08:27.425Z,99617
2018-07-21T13:09:33.174Z,99608
2018-07-21T13:10:38.334Z,99620
2018-07-21T13:11:43.516Z,99620
2018-07-21T13:12:49.469Z,99620
2018-07-21T13:13:54.360Z,99614
2018-07-21T13:14:59.511Z,99611
2018-07-21T13:16:04.281Z,99608
2018-07-21T13:17:09.160Z,99614
2018-07-21T13:18:14.085Z,99603
2018-07-21T13:19:19.484Z,99597
2018-07-21T13:20:24.641Z,99605
2018-07-21T13:21:30.625Z,99600
2018-07-21T13:22:35.786Z,99603
2018-07-21T13:23:41.153Z,99594
2018-07-21T13:24:47.152Z,99603
2018-07-21T13:25:52.639Z,99600
2018-07-21T13:26:57.863Z,99600
2018-07-21T13:28:02.559Z,99603
2018-07-21T13:29:07.233Z,99603
2018-07-21T13:30:12.718Z,99605
2018-07-21T13:31:18.170Z,99600
2018-07-21T13:32:23.355Z,99608
2018-07-21T13:33:28.562Z,99605
2018-07-21T13:34:34.060Z,99605
2018-07-21T13:35:39.214Z,99588
2018-07-21T13:36:44.619Z,99594
2018-07-21T13:37:49.761Z,99594
2018-07-21T13:38:54.920Z,99591
2018-07-21T13:40:00.339Z,99591
2018-07-21T13:41:05.496Z,99600
2018-07-21T13:42:10.727Z,99594
2018-07-21T13:43:16.517Z,99594
2018-07-21T13:44:21.538Z,99585
2018-07-21T13:45:27.673Z,99582
2018-07-21T13:46:32.551Z,99594
2018-07-21T13:47:38.074Z,99591
2018-07-21T13:48:43.758Z,99588
2018-07-21T13:49:48.929Z,99588
2018-07-21T13:50:53.908Z,99600
2018-07-21T13:51:59.591Z,99588
2018-07-21T13:53:04.760Z,99597
2018-07-21T13:54:09.695Z,99588
2018-07-21T13:55:15.414Z,99591
2018-07-21T13:56:20.845Z,99591
2018-07-21T13:57:26.832Z,99600
2018-07-21T13:58:32.298Z,99602
2018-07-21T13:59:37.440Z,99597
2018-07-21T14:00:43.224Z,99602
2018-07-21T14:01:48.754Z,99602
2018-07-21T14:02:53.946Z,99594
2018-07-21T14:03:59.796Z,99597
2018-07-21T14:05:05.323Z,99591
2018-07-21T14:06:10.808Z,99597